Time;durP1;ratioP1;P1;durP2;ratioP2;P2;SDS_P1;SDS_P2;PMS_P1;PMS_P2;Temp;Humidity;BMP_temperature;BMP_pressure;BME280_temperature;BME280_humidity;BME280_pressure;Samples;Min_cycle;Max_cycle;Signal;HPM_P1;HPM_P2
2023/07/02 00:00:26;;;;;;;;;4.33;4.33;;;;;18.06;100.00;97403.22;4933690;28;102050;-71
2023/07/02 00:02:53;;;;;;;;;5.67;4.67;;;;;18.08;100.00;97392.84;4932130;28;104042;-70
2023/07/02 00:05:26;;;;;;;;;5.00;5.00;;;;;18.07;100.00;97392.00;4926925;28;102410;-73
2023/07/02 00:08:08;;;;;;;;;5.33;4.33;;;;;18.08;100.00;97387.34;4927897;28;102134;-71
2023/07/02 00:10:52;;;;;;;;;6.33;6.00;;;;;18.08;100.00;97387.34;4933791;28;102419;-73
2023/07/02 00:13:41;;;;;;;;;5.00;5.00;;;;;18.07;100.00;97396.66;4906325;28;108813;-70
2023/07/02 00:16:19;;;;;;;;;5.00;5.00;;;;;18.06;100.00;97395.84;4934432;28;102050;-70
2023/07/02 00:18:52;;;;;;;;;6.00;5.67;;;;;18.06;100.00;97392.28;4937369;28;101951;-73
2023/07/02 00:21:20;;;;;;;;;7.00;7.00;;;;;18.04;100.00;97398.03;4928575;28;102552;-72
2023/07/02 00:23:48;;;;;;;;;6.00;6.00;;;;;18.04;100.00;97397.22;4934493;28;103047;-71
2023/07/02 00:26:15;;;;;;;;;6.33;6.33;;;;;18.03;100.00;97401.06;4935150;28;102240;-72
2023/07/02 00:28:42;;;;;;;;;3.67;3.67;;;;;18.03;100.00;97390.09;4935494;28;102182;-71
2023/07/02 00:31:09;;;;;;;;;2.67;2.33;;;;;18.01;100.00;97389.59;4931269;28;103089;-71
2023/07/02 00:33:36;;;;;;;;;4.00;4.00;;;;;18.01;100.00;97393.13;4930219;28;104153;-71
2023/07/02 00:36:03;;;;;;;;;3.00;2.00;;;;;17.99;100.00;97378.09;4927332;28;102000;-71
2023/07/02 00:38:30;;;;;;;;;3.33;3.33;;;;;18.01;100.00;97386.84;4932818;28;101889;-71
2023/07/02 00:40:57;;;;;;;;;6.00;6.00;;;;;18.00;100.00;97385.22;4932765;28;102107;-71
2023/07/02 00:43:24;;;;;;;;;6.00;6.00;;;;;18.03;100.00;97390.09;4933490;28;103793;-70
2023/07/02 00:45:51;;;;;;;;;6.33;6.00;;;;;18.01;100.00;97381.38;4934580;28;102240;-70
2023/07/02 00:48:19;;;;;;;;;6.67;6.33;;;;;18.02;100.00;97383.81;4931647;28;102313;-71
2023/07/02 00:50:46;;;;;;;;;7.33;6.67;;;;;17.99;100.00;97387.13;4932251;28;102227;-71
2023/07/02 00:53:13;;;;;;;;;7.33;7.33;;;;;17.98;100.00;97381.91;4930126;28;104034;-71
2023/07/02 00:55:40;;;;;;;;;6.33;6.00;;;;;17.98;100.00;97403.78;4935290;28;102293;-71
2023/07/02 00:58:08;;;;;;;;;6.67;6.00;;;;;17.95;100.00;97380.56;4932507;28;102335;-71
2023/07/02 01:00:35;;;;;;;;;11.67;10.33;;;;;17.88;100.00;97392.91;4931033;28;102914;-70
2023/07/02 01:03:03;;;;;;;;;6.33;6.00;;;;;17.86;100.00;97384.16;4922204;28;104173;-71
2023/07/02 01:05:35;;;;;;;;;7.67;6.33;;;;;17.89;100.00;97391.78;4930323;28;103817;-71
2023/07/02 01:08:35;;;;;;;;;10.33;9.67;;;;;17.91;100.00;97381.41;4925726;28;102024;-71
2023/07/02 01:11:23;;;;;;;;;8.33;8.00;;;;;17.75;100.00;97356.81;4934884;28;102183;-71
2023/07/02 01:14:24;;;;;;;;;10.33;8.33;;;;;17.80;100.00;97359.53;4930499;28;107682;-70
2023/07/02 01:17:11;;;;;;;;;7.33;6.67;;;;;17.90;100.00;97375.09;4933894;28;102369;-70
2023/07/02 01:19:58;;;;;;;;;3.67;3.67;;;;;17.78;100.00;97361.75;4931636;28;101885;-71
2023/07/02 01:22:27;;;;;;;;;7.00;6.00;;;;;17.88;100.00;97376.50;4930924;28;102165;-71
2023/07/02 01:24:55;;;;;;;;;8.00;8.00;;;;;17.70;100.00;97345.88;4929319;28;104102;-71
2023/07/02 01:27:22;;;;;;;;;9.33;9.33;;;;;17.52;100.00;97324.56;4931839;28;101992;-72
2023/07/02 01:29:53;;;;;;;;;8.00;8.00;;;;;17.79;100.00;97370.75;4931137;28;102220;-72
2023/07/02 01:32:21;;;;;;;;;6.33;6.00;;;;;17.78;100.00;97371.88;4796884;28;102172;-71
2023/07/02 01:34:49;;;;;;;;;7.33;6.67;;;;;17.74;100.00;97359.84;4932358;28;104151;-71
2023/07/02 01:37:19;;;;;;;;;7.00;7.00;;;;;17.71;100.00;97361.22;4931462;28;102219;-71
2023/07/02 01:39:46;;;;;;;;;8.33;8.33;;;;;17.68;100.00;97361.78;4929590;28;102584;-71
2023/07/02 01:42:18;;;;;;;;;6.33;6.33;;;;;17.64;100.00;97357.13;4932642;28;102668;-71
2023/07/02 01:44:48;;;;;;;;;6.00;6.00;;;;;17.59;100.00;97357.97;4949199;28;109090;-72
2023/07/02 01:47:16;;;;;;;;;9.00;8.00;;;;;17.57;100.00;97354.63;4930198;28;102284;-72
2023/07/02 01:49:43;;;;;;;;;8.67;6.67;;;;;17.55;100.00;97356.03;4933197;28;102189;-72
2023/07/02 01:52:10;;;;;;;;;11.00;9.67;;;;;17.53;100.00;97360.94;4933908;28;102869;-72
2023/07/02 01:54:37;;;;;;;;;9.00;8.00;;;;;17.50;100.00;97358.75;4932398;28;104150;-72
2023/07/02 01:57:05;;;;;;;;;9.67;8.67;;;;;17.45;100.00;97354.13;4934452;28;102349;-72
2023/07/02 01:59:32;;;;;;;;;7.00;6.67;;;;;17.42;100.00;97357.41;4934118;28;101836;-71
2023/07/02 02:01:59;;;;;;;;;8.33;8.33;;;;;17.38;100.00;97356.31;4935397;28;102487;-71
2023/07/02 02:04:26;;;;;;;;;6.00;6.00;;;;;17.35;100.00;97354.13;4926447;28;104293;-71
2023/07/02 02:06:54;;;;;;;;;6.00;6.00;;;;;17.35;100.00;97362.31;4931927;28;102267;-72
2023/07/02 02:09:21;;;;;;;;;9.67;8.00;;;;;17.29;100.00;97349.78;4934771;28;102168;-71
2023/07/02 02:11:50;;;;;;;;;7.00;7.00;;;;;17.15;100.00;97335.03;4939299;28;102026;-72
2023/07/02 02:14:17;;;;;;;;;6.00;6.00;;;;;17.27;100.00;97346.47;4936130;28;110670;-72
2023/07/02 02:16:47;;;;;;;;;8.00;7.00;;;;;17.26;100.00;97353.84;4940038;28;101961;-72
2023/07/02 02:19:15;;;;;;;;;8.00;8.00;;;;;17.19;100.00;97341.56;4935573;28;101906;-72
2023/07/02 02:21:42;;;;;;;;;5.33;4.00;;;;;17.24;100.00;97355.25;4936275;28;104151;-72
2023/07/02 02:24:10;;;;;;;;;8.33;8.00;;;;;17.23;100.00;97350.88;4931233;28;104245;-72
2023/07/02 02:26:37;;;;;;;;;3.33;2.00;;;;;17.20;100.00;97349.47;4936467;28;102104;-72
2023/07/02 02:29:04;;;;;;;;;7.33;7.33;;;;;17.19;100.00;97356.06;4933329;28;101826;-72
2023/07/02 02:31:32;;;;;;;;;10.00;9.00;;;;;17.16;100.00;97353.03;4918746;28;102664;-72
2023/07/02 02:33:59;;;;;;;;;8.00;8.00;;;;;17.13;100.00;97346.22;4938030;28;104039;-72
2023/07/02 02:36:26;;;;;;;;;10.67;10.00;;;;;17.09;100.00;97347.84;4933337;28;102176;-72
2023/07/02 02:38:53;;;;;;;;;5.00;5.00;;;;;17.08;100.00;97350.84;4930957;28;102871;-72
2023/07/02 02:41:20;;;;;;;;;10.33;8.00;;;;;17.04;100.00;97349.75;4933933;28;102272;-72
2023/07/02 02:43:47;;;;;;;;;7.33;7.00;;;;;17.00;100.00;97343.22;4938011;28;108734;-73
2023/07/02 02:46:21;;;;;;;;;6.33;5.67;;;;;17.05;100.00;97348.69;4935488;28;102039;-72
2023/07/02 02:48:48;;;;;;;;;6.00;6.00;;;;;17.04;100.00;97349.75;4929674;28;103263;-72
2023/07/02 02:51:15;;;;;;;;;4.00;3.00;;;;;17.05;100.00;97348.69;4935693;28;103620;-71
2023/07/02 02:53:42;;;;;;;;;6.00;5.00;;;;;17.05;100.00;97357.69;4928586;28;104159;-72
2023/07/02 02:56:09;;;;;;;;;6.00;6.00;;;;;17.07;100.00;97354.66;4927803;28;101913;-72
2023/07/02 02:58:36;;;;;;;;;5.33;5.00;;;;;17.08;100.00;97356.31;4938011;28;102322;-73
2023/07/02 03:01:10;;;;;;;;;7.00;7.00;;;;;17.06;100.00;97347.59;4938155;28;102052;-71
2023/07/02 03:03:44;;;;;;;;;6.00;5.67;;;;;17.10;100.00;97348.69;4936402;28;104103;-72
2023/07/02 03:06:15;;;;;;;;;7.00;6.00;;;;;17.10;100.00;97351.41;4935324;28;103271;-72
2023/07/02 03:08:42;;;;;;;;;6.33;6.00;;;;;17.09;100.00;97358.78;4934422;28;102076;-72
2023/07/02 03:11:10;;;;;;;;;8.00;7.33;;;;;17.05;100.00;97337.75;4936040;28;102229;-71
2023/07/02 03:13:37;;;;;;;;;7.33;6.33;;;;;17.13;100.00;97348.13;4933152;28;104212;-71
2023/07/02 03:16:04;;;;;;;;;6.00;4.67;;;;;17.10;100.00;97345.94;4935567;28;102342;-72
2023/07/02 03:18:31;;;;;;;;;5.00;5.00;;;;;17.06;100.00;97339.41;4939959;28;102049;-72
2023/07/02 03:20:59;;;;;;;;;5.33;5.00;;;;;17.14;100.00;97347.88;4935278;28;102977;-71
2023/07/02 03:23:26;;;;;;;;;7.33;7.33;;;;;17.17;100.00;97354.69;4933794;28;104267;-72
2023/07/02 03:25:53;;;;;;;;;6.33;6.33;;;;;17.18;100.00;97350.84;4934758;28;102360;-71
2023/07/02 03:28:20;;;;;;;;;8.33;8.33;;;;;17.19;100.00;97353.31;4935912;28;101967;-73
2023/07/02 03:30:47;;;;;;;;;8.00;7.33;;;;;17.20;100.00;97352.22;4934965;28;102377;-72
2023/07/02 03:33:14;;;;;;;;;9.67;9.00;;;;;17.17;100.00;97343.75;4931800;28;103941;-72
2023/07/02 03:35:41;;;;;;;;;8.00;7.67;;;;;17.23;100.00;97354.41;4928368;28;106767;-72
2023/07/02 03:38:08;;;;;;;;;8.00;7.00;;;;;17.26;100.00;97355.78;4925830;28;102044;-71
2023/07/02 03:40:35;;;;;;;;;5.00;5.00;;;;;17.28;100.00;97356.31;4925697;28;103307;-72
2023/07/02 03:43:02;;;;;;;;;4.33;4.33;;;;;17.25;100.00;97354.94;4925623;28;104191;-71
2023/07/02 03:45:29;;;;;;;;;5.00;4.00;;;;;17.34;100.00;97371.59;4930220;28;102134;-72
2023/07/02 03:47:57;;;;;;;;;4.00;3.00;;;;;17.37;100.00;97371.91;4932993;28;106087;-72
2023/07/02 03:50:24;;;;;;;;;5.00;5.00;;;;;17.42;100.00;97368.34;4933187;28;102340;-71
2023/07/02 03:52:50;;;;;;;;;5.67;5.00;;;;;17.46;100.00;97371.34;4935949;28;104161;-72
2023/07/02 03:55:19;;;;;;;;;4.67;4.00;;;;;17.44;100.00;97366.13;4932103;28;102424;-72
2023/07/02 03:57:46;;;;;;;;;2.33;2.00;;;;;17.53;100.00;97375.41;4933574;28;102171;-71
2023/07/02 04:00:14;;;;;;;;;4.67;4.67;;;;;17.55;100.00;97378.72;4934665;28;102597;-71
2023/07/02 04:02:41;;;;;;;;;4.33;4.00;;;;;17.61;100.00;97376.78;4925912;28;103696;-71
2023/07/02 04:05:08;;;;;;;;;4.33;3.00;;;;;17.65;100.00;97373.22;4929129;28;102002;-71
2023/07/02 04:07:35;;;;;;;;;5.00;5.00;;;;;17.68;100.00;97372.72;4933011;28;102172;-71
2023/07/02 04:10:02;;;;;;;;;3.00;3.00;;;;;17.64;100.00;97362.59;4930555;28;106303;-71
2023/07/02 04:12:31;;;;;;;;;7.33;6.33;;;;;17.74;100.00;97371.56;4924731;28;104182;-73
2023/07/02 04:14:58;;;;;;;;;5.33;5.00;;;;;17.72;100.00;97364.75;4929804;28;103379;-71
2023/07/02 04:17:25;;;;;;;;;8.00;7.00;;;;;17.74;100.00;97366.09;4930173;28;102048;-71
2023/07/02 04:19:55;;;;;;;;;8.33;8.33;;;;;17.80;100.00;97375.13;4932129;28;108998;-72
2023/07/02 04:22:22;;;;;;;;;7.00;7.00;;;;;17.85;100.00;97377.84;4935756;28;108982;-72
2023/07/02 04:24:49;;;;;;;;;7.33;7.33;;;;;17.87;100.00;97366.66;4934619;28;102083;-72
2023/07/02 04:27:21;;;;;;;;;7.67;7.67;;;;;17.94;100.00;97372.63;4932446;28;102009;-71
2023/07/02 04:30:10;;;;;;;;;9.00;7.33;;;;;17.87;100.00;97352.97;4935601;28;103211;-72
2023/07/02 04:32:40;;;;;;;;;10.33;8.00;;;;;18.05;100.00;97385.19;4931847;28;103738;-71
2023/07/02 04:35:08;;;;;;;;;8.33;6.67;;;;;18.06;100.00;97373.13;4929155;28;104195;-72
2023/07/02 04:37:35;;;;;;;;;7.00;7.00;;;;;18.18;100.00;97393.63;4932676;28;102309;-73
2023/07/02 04:40:06;;;;;;;;;7.33;7.00;;;;;18.19;100.00;97383.50;4937189;28;102615;-72
2023/07/02 04:42:34;;;;;;;;;6.00;6.00;;;;;18.23;100.00;97390.06;4932895;28;104065;-72
2023/07/02 04:45:01;;;;;;;;;9.00;9.00;;;;;18.11;100.00;97359.44;4935543;28;102265;-72
2023/07/02 04:47:29;;;;;;;;;7.67;6.67;;;;;18.47;100.00;97385.56;4934733;28;102485;-72
2023/07/02 04:49:56;;;;;;;;;9.00;9.00;;;;;18.59;100.00;97391.56;4932889;28;102118;-72
2023/07/02 04:52:23;;;;;;;;;8.33;7.33;;;;;18.88;100.00;97393.56;4933482;28;104243;-71
2023/07/02 04:54:50;;;;;;;;;9.67;9.00;;;;;19.06;100.00;97387.41;4931795;28;102178;-72
2023/07/02 04:57:17;;;;;;;;;9.00;9.00;;;;;19.38;100.00;97395.13;4932039;28;102154;-72
2023/07/02 04:59:44;;;;;;;;;7.67;7.67;;;;;19.40;100.00;97395.66;4932730;28;102117;-73
2023/07/02 05:02:11;;;;;;;;;7.00;7.00;;;;;19.72;100.00;97400.63;4931065;28;104024;-72
2023/07/02 05:04:38;;;;;;;;;8.67;6.33;;;;;19.85;100.00;97388.97;4929657;28;103306;-72
2023/07/02 05:07:05;;;;;;;;;7.00;7.00;;;;;20.08;99.78;97399.16;4929215;28;102287;-72
2023/07/02 05:09:32;;;;;;;;;11.00;6.67;;;;;20.07;99.13;97397.50;4936427;28;103611;-73
2023/07/02 05:11:59;;;;;;;;;8.00;8.00;;;;;19.98;99.57;97407.50;4932845;28;103964;-72
2023/07/02 05:14:26;;;;;;;;;8.00;7.00;;;;;19.90;99.02;97399.91;4930418;28;102047;-72
2023/07/02 05:16:53;;;;;;;;;5.00;5.00;;;;;19.89;99.18;97409.22;4929940;28;102355;-72
2023/07/02 05:19:20;;;;;;;;;6.00;6.00;;;;;19.88;100.00;97416.63;4935475;28;102663;-72
2023/07/02 05:21:47;;;;;;;;;4.67;4.67;;;;;19.90;100.00;97413.63;4932223;28;104123;-72
2023/07/02 05:24:14;;;;;;;;;6.00;6.00;;;;;19.88;99.79;97405.66;4931986;28;102403;-72
2023/07/02 05:26:41;;;;;;;;;4.00;4.00;;;;;19.94;100.00;97418.25;4927653;28;102553;-73
2023/07/02 05:29:08;;;;;;;;;4.67;4.67;;;;;19.91;99.43;97415.22;4933703;28;102635;-72
2023/07/02 05:31:35;;;;;;;;;4.00;3.67;;;;;19.94;98.48;97420.16;4927104;28;104054;-72
2023/07/02 05:34:02;;;;;;;;;4.67;4.67;;;;;19.72;99.03;97395.16;4932801;28;102465;-73
2023/07/02 05:36:29;;;;;;;;;5.33;5.00;;;;;19.96;99.53;97423.41;4931779;28;102456;-72
2023/07/02 05:38:56;;;;;;;;;3.00;3.00;;;;;19.93;98.13;97434.97;4926207;28;102239;-72
2023/07/02 05:41:24;;;;;;;;;6.67;4.00;;;;;19.88;97.42;97435.03;4931816;28;103954;-71
2023/07/02 05:43:52;;;;;;;;;7.00;6.33;;;;;19.87;97.83;97441.59;4934525;28;103324;-72
2023/07/02 05:46:19;;;;;;;;;6.33;6.33;;;;;19.79;96.31;97442.25;4934129;28;102425;-72
2023/07/02 05:48:46;;;;;;;;;4.00;4.00;;;;;19.79;97.75;97442.25;4927592;28;102794;-71
2023/07/02 05:51:13;;;;;;;;;4.33;4.00;;;;;19.81;97.60;97443.56;4929475;28;104445;-72
2023/07/02 05:53:40;;;;;;;;;6.00;5.00;;;;;19.69;96.59;97431.34;4936640;28;103151;-72
2023/07/02 05:56:07;;;;;;;;;5.33;5.33;;;;;19.69;96.84;97448.63;4936103;28;102388;-72
2023/07/02 05:58:34;;;;;;;;;5.00;4.33;;;;;19.74;97.87;97450.50;4935486;28;103201;-72
2023/07/02 06:01:14;;;;;;;;;4.00;4.00;;;;;19.73;98.25;97446.13;4935745;28;104382;-71
2023/07/02 06:03:42;;;;;;;;;4.00;4.00;;;;;19.78;98.87;97449.66;4932411;28;102778;-72
2023/07/02 06:06:11;;;;;;;;;3.00;3.00;;;;;19.80;98.22;97446.63;4935740;28;102397;-72
2023/07/02 06:08:38;;;;;;;;;5.00;5.00;;;;;19.78;97.18;97444.16;4933327;28;102445;-72
2023/07/02 06:11:05;;;;;;;;;3.67;3.33;;;;;19.84;97.68;97442.19;4934782;28;104042;-72
2023/07/02 06:13:32;;;;;;;;;3.33;3.33;;;;;19.86;97.62;97450.94;4932750;28;103471;-72
2023/07/02 06:15:59;;;;;;;;;5.00;5.00;;;;;19.89;97.78;97453.94;4938227;28;101971;-72
2023/07/02 06:18:26;;;;;;;;;4.67;3.00;;;;;19.92;98.08;97458.03;4931380;28;103199;-72
2023/07/02 06:20:54;;;;;;;;;4.00;4.00;;;;;19.95;97.89;97460.19;4936068;28;104128;-71
2023/07/02 06:23:21;;;;;;;;;4.33;4.00;;;;;19.99;97.83;97461.28;4935245;28;102205;-71
2023/07/02 06:25:48;;;;;;;;;3.67;3.67;;;;;20.09;95.56;97458.41;4934918;28;102386;-72
2023/07/02 06:28:15;;;;;;;;;2.33;2.33;;;;;20.27;94.84;97463.16;4935757;28;102933;-72
2023/07/02 06:30:42;;;;;;;;;5.00;4.67;;;;;20.43;95.46;97467.41;4929725;28;104108;-71
2023/07/02 06:33:09;;;;;;;;;2.00;1.67;;;;;20.59;93.93;97457.06;4937535;28;103508;-71
2023/07/02 06:35:36;;;;;;;;;5.67;5.33;;;;;20.76;92.96;97465.63;4934507;28;102217;-72
2023/07/02 06:38:03;;;;;;;;;4.00;4.00;;;;;20.88;89.64;97465.22;4935011;28;101968;-72
2023/07/02 06:40:30;;;;;;;;;5.33;5.33;;;;;20.95;87.99;97460.16;4938797;28;103971;-71
2023/07/02 06:42:57;;;;;;;;;4.00;4.00;;;;;20.98;89.07;97462.34;4934166;28;102034;-71
2023/07/02 06:45:24;;;;;;;;;5.00;4.67;;;;;21.00;88.12;97459.28;4935674;28;102168;-71
2023/07/02 06:47:51;;;;;;;;;4.67;4.67;;;;;20.98;87.03;97464.28;4941963;28;102242;-71
2023/07/02 06:50:19;;;;;;;;;5.33;5.00;;;;;21.06;87.16;97464.41;4933737;28;108944;-71
2023/07/02 06:52:46;;;;;;;;;4.00;3.67;;;;;21.48;86.28;97458.03;4930358;28;103917;-71
2023/07/02 06:55:13;;;;;;;;;5.00;4.33;;;;;21.60;82.77;97463.91;4929216;28;102744;-71
2023/07/02 06:57:47;;;;;;;;;4.00;4.00;;;;;21.70;84.64;97460.19;4938979;28;101971;-71
2023/07/02 07:00:14;;;;;;;;;3.00;3.00;;;;;21.99;81.39;97463.56;4933216;28;104020;-72
2023/07/02 07:02:41;;;;;;;;;3.00;3.00;;;;;22.25;80.63;97464.72;4936658;28;102084;-71
2023/07/02 07:05:09;;;;;;;;;5.00;5.00;;;;;22.14;84.33;97462.47;4936597;28;103822;-71
2023/07/02 07:07:36;;;;;;;;;5.67;5.67;;;;;21.90;79.32;97462.56;4937235;28;102377;-71
2023/07/02 07:10:04;;;;;;;;;7.00;5.33;;;;;21.96;77.35;97464.16;4931305;28;104214;-72
2023/07/02 07:12:31;;;;;;;;;4.67;4.67;;;;;;;;4937644;28;102773;-72
2023/07/02 07:14:58;;;;;;;;;4.00;4.00;;;;;22.01;78.82;97475.09;4937634;28;102461;-72
2023/07/02 07:17:25;;;;;;;;;4.33;4.33;;;;;22.18;78.35;97480.00;4938946;28;102300;-71
2023/07/02 07:19:52;;;;;;;;;6.33;6.00;;;;;22.18;76.53;97480.84;4940332;28;104165;-72
2023/07/02 07:22:21;;;;;;;;;3.00;3.00;;;;;22.27;75.10;97480.94;4938013;28;101933;-71
2023/07/02 07:24:48;;;;;;;;;9.00;7.00;;;;;22.07;75.50;97493.13;4938220;28;102522;-71
2023/07/02 07:27:15;;;;;;;;;8.00;8.00;;;;;21.60;75.94;97493.34;4938115;28;102135;-72
2023/07/02 07:29:42;;;;;;;;;7.33;7.00;;;;;21.27;75.29;97498.78;4936829;28;104226;-75
2023/07/02 07:32:09;;;;;;;;;7.67;7.33;;;;;21.17;77.35;97503.59;4938299;28;102214;-72
2023/07/02 07:34:36;;;;;;;;;8.00;7.00;;;;;21.24;78.17;97495.81;4934832;28;102724;-72
2023/07/02 07:37:04;;;;;;;;;5.67;5.67;;;;;21.35;78.54;97517.38;4937967;28;104354;-71
2023/07/02 07:39:31;;;;;;;;;5.00;4.00;;;;;21.57;79.13;97508.50;4935582;28;104034;-72
2023/07/02 07:41:58;;;;;;;;;4.67;4.67;;;;;21.54;77.62;97513.78;4931415;28;102481;-72
2023/07/02 07:44:28;;;;;;;;;6.00;6.00;;;;;21.12;80.05;97517.41;4933086;28;103107;-71
2023/07/02 07:46:56;;;;;;;;;2.00;2.00;;;;;21.38;78.19;97515.16;4937759;28;102350;-71
2023/07/02 07:49:23;;;;;;;;;8.67;7.33;;;;;20.96;79.19;97486.53;4938897;28;103983;-72
2023/07/02 07:51:50;;;;;;;;;5.00;5.00;;;;;21.07;78.02;97534.78;4929501;28;103570;-73
2023/07/02 07:54:17;;;;;;;;;6.00;6.00;;;;;21.19;80.36;97526.94;4921990;28;102345;-71
2023/07/02 07:56:44;;;;;;;;;5.33;5.00;;;;;21.02;77.01;97534.84;4929871;28;102546;-72
2023/07/02 07:59:13;;;;;;;;;5.67;5.33;;;;;20.69;75.78;97536.59;4925845;28;104344;-72
2023/07/02 08:01:40;;;;;;;;;5.67;5.00;;;;;20.64;80.19;97530.34;4926414;28;102553;-72
2023/07/02 08:04:07;;;;;;;;;8.00;7.00;;;;;20.53;82.21;97537.06;4925755;28;102166;-71
2023/07/02 08:06:34;;;;;;;;;5.33;5.00;;;;;20.92;83.43;97535.78;4928262;28;102256;-70
2023/07/02 08:09:02;;;;;;;;;4.33;4.33;;;;;20.99;79.89;97535.41;4926761;28;103881;-72
2023/07/02 08:11:29;;;;;;;;;5.00;4.00;;;;;21.15;79.28;97534.16;4929519;28;103386;-71
2023/07/02 08:13:57;;;;;;;;;6.00;6.00;;;;;21.05;77.35;97542.50;4930550;28;102151;-71
2023/07/02 08:16:24;;;;;;;;;7.00;7.00;;;;;20.87;77.59;97535.03;4933563;28;102331;-70
2023/07/02 08:18:51;;;;;;;;;6.00;5.00;;;;;20.66;78.90;97542.69;4931299;28;104387;-71
2023/07/02 08:21:18;;;;;;;;;4.33;4.00;;;;;20.56;81.78;97537.31;4931005;28;102121;-71
2023/07/02 08:23:45;;;;;;;;;4.00;4.00;;;;;20.68;80.78;97542.38;4926998;28;102076;-71
2023/07/02 08:26:14;;;;;;;;;3.33;3.33;;;;;20.71;80.32;97547.31;4926225;28;102815;-72
2023/07/02 08:28:44;;;;;;;;;3.67;2.67;;;;;20.74;81.00;97543.97;4931917;28;103103;-71
2023/07/02 08:31:13;;;;;;;;;5.00;2.33;;;;;20.78;81.74;97550.50;4935302;28;102052;-71
2023/07/02 08:33:40;;;;;;;;;5.00;4.00;;;;;20.56;81.52;97550.22;4932466;28;102086;-71
2023/07/02 08:36:07;;;;;;;;;4.00;4.00;;;;;20.60;83.08;97554.84;4933556;28;102082;-71
2023/07/02 08:38:34;;;;;;;;;3.00;3.00;;;;;20.59;82.15;97557.84;4931753;28;104165;-70
2023/07/02 08:41:02;;;;;;;;;4.00;4.00;;;;;20.52;81.06;97562.88;4932638;28;102069;-71
2023/07/02 08:43:29;;;;;;;;;4.00;3.00;;;;;20.51;83.44;97574.97;4927709;28;102429;-71
2023/07/02 08:45:57;;;;;;;;;5.00;4.00;;;;;20.43;81.27;97568.19;4932491;28;102204;-72
2023/07/02 08:48:26;;;;;;;;;5.00;5.00;;;;;20.39;81.24;97561.66;4932461;28;108610;-72
2023/07/02 08:50:53;;;;;;;;;6.67;6.67;;;;;20.26;81.86;97571.31;4934259;28;102449;-72
2023/07/02 08:53:29;;;;;;;;;7.33;6.67;;;;;19.99;85.19;97573.78;4933554;28;102209;-71
2023/07/02 08:55:56;;;;;;;;;10.00;9.33;;;;;19.33;91.52;97579.66;4930085;28;102198;-73
2023/07/02 08:58:23;;;;;;;;;10.00;9.67;;;;;18.79;95.58;97570.56;4919141;28;103979;-73
2023/07/02 09:01:10;;;;;;;;;10.00;10.00;;;;;18.62;98.44;97579.91;4920781;28;102000;-72
2023/07/02 09:03:39;;;;;;;;;7.00;7.00;;;;;18.65;98.75;97590.31;4926355;28;102730;-74
2023/07/02 09:06:07;;;;;;;;;6.67;6.67;;;;;18.66;100.00;97600.16;4924729;28;102614;-72
2023/07/02 09:08:36;;;;;;;;;11.00;11.00;;;;;18.37;100.00;97599.06;4928856;28;104240;-71
2023/07/02 09:11:19;;;;;;;;;9.67;9.00;;;;;18.25;100.00;97612.22;4929280;28;103504;-71
2023/07/02 09:13:58;;;;;;;;;7.00;7.00;;;;;18.34;100.00;97604.28;4927427;28;102310;-71
2023/07/02 09:16:28;;;;;;;;;6.33;5.67;;;;;18.37;100.00;97610.03;4945733;28;102447;-72
2023/07/02 09:19:07;;;;;;;;;6.00;6.00;;;;;18.30;100.00;97604.03;4929484;28;104177;-71
2023/07/02 09:21:48;;;;;;;;;6.00;6.00;;;;;18.49;100.00;97604.28;4928753;28;102142;-70
2023/07/02 09:24:19;;;;;;;;;5.67;5.00;;;;;18.66;100.00;97607.56;4930806;28;102053;-71
2023/07/02 09:26:53;;;;;;;;;4.00;4.00;;;;;18.86;100.00;97609.44;4938679;28;102304;-72
2023/07/02 09:29:31;;;;;;;;;4.67;4.00;;;;;18.98;100.00;97608.03;4930971;28;104131;-72
2023/07/02 09:32:04;;;;;;;;;6.00;6.00;;;;;19.29;100.00;97603.25;4931198;28;102111;-72
2023/07/02 09:34:40;;;;;;;;;9.00;9.00;;;;;19.24;100.00;97592.28;4937977;28;101988;-73
2023/07/02 09:37:07;;;;;;;;;8.00;7.00;;;;;19.52;98.97;97602.59;4923366;28;102370;-72
2023/07/02 09:39:36;;;;;;;;;5.00;5.00;;;;;19.90;96.85;97591.97;4927105;28;108984;-72
2023/07/02 09:42:06;;;;;;;;;5.00;5.00;;;;;20.19;96.25;97595.56;4933075;28;102751;-72
2023/07/02 09:44:35;;;;;;;;;4.00;4.00;;;;;20.42;91.24;97599.50;4932828;28;102373;-73
2023/07/02 09:47:08;;;;;;;;;5.00;5.00;;;;;20.51;87.31;97594.19;4929298;28;102787;-73
2023/07/02 09:49:38;;;;;;;;;4.00;4.00;;;;;20.65;86.39;97595.16;4927795;28;108772;-71
2023/07/02 09:52:06;;;;;;;;;4.67;4.67;;;;;20.43;84.71;97584.66;4935256;28;102204;-72
2023/07/02 09:54:33;;;;;;;;;4.67;4.00;;;;;20.55;86.35;97587.03;4931289;28;102473;-71
2023/07/02 09:57:02;;;;;;;;;4.67;4.67;;;;;20.24;85.80;97545.28;4930466;28;102083;-71
2023/07/02 09:59:29;;;;;;;;;5.00;5.00;;;;;20.51;84.19;97584.03;4932181;28;104028;-70
2023/07/02 10:01:57;;;;;;;;;4.00;3.67;;;;;20.63;83.23;97587.19;4926166;28;102636;-71
2023/07/02 10:04:25;;;;;;;;;3.33;3.33;;;;;20.76;82.59;97585.69;4932138;28;102143;-71
2023/07/02 10:06:57;;;;;;;;;3.67;3.67;;;;;20.86;81.75;97569.09;4929041;28;102512;-72
2023/07/02 10:09:45;;;;;;;;;3.67;3.67;;;;;20.86;80.41;97574.59;4928138;28;104063;-71
2023/07/02 10:12:24;;;;;;;;;4.00;4.00;;;;;21.08;82.24;97583.13;4925534;28;102190;-72
2023/07/02 10:14:54;;;;;;;;;5.67;5.67;;;;;21.01;81.07;97577.19;4912912;28;102018;-71
2023/07/02 10:17:24;;;;;;;;;9.00;9.00;;;;;20.62;82.16;97569.09;4932060;28;103602;-73
2023/07/02 10:19:53;;;;;;;;;7.00;7.00;;;;;20.88;80.55;97567.72;4929569;28;103118;-73
2023/07/02 10:22:21;;;;;;;;;6.33;6.00;;;;;21.02;82.08;97567.81;4920574;28;103036;-72
2023/07/02 10:25:02;;;;;;;;;4.33;4.33;;;;;21.25;83.34;97561.50;4930249;28;102102;-73
2023/07/02 10:27:40;;;;;;;;;5.00;4.67;;;;;21.44;80.16;97572.53;4931843;28;102230;-73
2023/07/02 10:30:11;;;;;;;;;4.33;4.33;;;;;21.56;80.08;97572.09;4933689;28;103029;-70
2023/07/02 10:32:40;;;;;;;;;4.00;4.00;;;;;21.73;80.03;97570.47;4928700;28;102234;-73
2023/07/02 10:35:18;;;;;;;;;7.00;6.00;;;;;21.57;77.41;97560.00;4927982;28;102223;-73
2023/07/02 10:37:45;;;;;;;;;7.00;7.00;;;;;21.52;79.90;97558.13;4935464;28;103285;-73
2023/07/02 10:40:13;;;;;;;;;7.67;6.67;;;;;21.74;78.98;97565.78;4932139;28;108740;-72
2023/07/02 10:42:51;;;;;;;;;5.00;5.00;;;;;21.85;78.60;97553.47;4930254;28;102267;-72
2023/07/02 10:45:19;;;;;;;;;7.33;6.33;;;;;21.72;77.31;97557.00;4933200;28;102686;-72
2023/07/02 10:47:46;;;;;;;;;6.00;6.00;;;;;21.93;76.66;97550.06;4929476;28;103387;-73
2023/07/02 10:50:19;;;;;;;;;4.33;4.00;;;;;22.15;77.30;97544.75;4922460;28;109324;-73
2023/07/02 10:52:47;;;;;;;;;3.00;3.00;;;;;22.28;76.34;97520.31;4928547;28;102481;-72
2023/07/02 10:55:22;;;;;;;;;2.33;2.33;;;;;22.48;77.52;97534.53;4932212;28;103476;-72
2023/07/02 10:57:51;;;;;;;;;4.67;4.00;;;;;22.53;75.11;97530.88;4928751;28;102307;-73
2023/07/02 11:00:19;;;;;;;;;3.00;3.00;;;;;22.69;74.79;97535.00;4931677;28;103134;-73
2023/07/02 11:02:46;;;;;;;;;1.33;1.00;;;;;22.82;73.52;97523.19;4930908;28;102322;-74
2023/07/02 11:05:14;;;;;;;;;6.00;5.67;;;;;23.01;71.85;97523.06;4924677;28;102797;-73
2023/07/02 11:07:42;;;;;;;;;4.00;4.00;;;;;22.96;71.41;97515.72;4921151;28;102859;-72
2023/07/02 11:10:11;;;;;;;;;4.00;3.67;;;;;23.05;71.44;97521.34;4929662;28;104270;-72
2023/07/02 11:12:38;;;;;;;;;3.00;3.00;;;;;23.00;72.66;97530.53;4928564;28;102470;-72
2023/07/02 11:15:14;;;;;;;;;2.67;2.00;;;;;23.01;71.20;97523.06;4930793;28;101817;-72
2023/07/02 11:17:42;;;;;;;;;1.67;1.67;;;;;23.01;71.75;97510.06;4931962;28;102206;-70
2023/07/02 11:20:11;;;;;;;;;3.00;3.00;;;;;22.88;71.07;97526.63;4934476;28;103768;-72
2023/07/02 11:22:39;;;;;;;;;3.00;2.00;;;;;23.07;74.36;97514.38;4929878;28;102713;-73
2023/07/02 11:25:17;;;;;;;;;2.00;2.00;;;;;23.38;72.32;97516.47;4929605;28;103296;-73
2023/07/02 11:27:45;;;;;;;;;3.00;2.00;;;;;23.56;71.71;97518.28;4932829;28;102334;-72
2023/07/02 11:30:13;;;;;;;;;2.33;2.33;;;;;23.67;72.68;97516.94;4928835;28;104484;-72